createdAt,value
2023-01-17T01:32:18.977Z,12.00
2023-01-17T02:19:38.662Z,14.00
2023-01-17T02:22:39.970Z,11.90
2023-01-17T02:25:17.820Z,12.10
2023-01-17T02:28:15.524Z,11.20
2023-01-17T02:30:43.892Z,11.00
2023-01-17T02:33:31.873Z,10.40
2023-01-17T02:36:06.886Z,9.50
2023-01-17T02:38:39.687Z,10.60
2023-01-17T02:41:12.967Z,9.90
2023-01-17T02:43:39.878Z,10.20
2023-01-17T02:46:08.833Z,9.90
2023-01-17T02:48:37.285Z,10.30
2023-01-17T02:51:33.409Z,10.40
2023-01-17T02:54:18.090Z,9.30
2023-01-17T02:56:49.541Z,10.10
2023-01-17T02:59:56.311Z,9.70
2023-01-17T03:02:41.983Z,10.90
2023-01-17T03:05:14.179Z,9.90
2023-01-17T03:07:42.447Z,9.20
2023-01-17T03:10:09.944Z,8.80
2023-01-17T03:12:38.246Z,9.30
2023-01-17T03:15:12.754Z,10.40
2023-01-17T03:17:51.443Z,10.40
2023-01-17T03:20:18.572Z,9.40
2023-01-17T03:22:45.397Z,9.70
2023-01-17T03:25:12.094Z,9.70
2023-01-17T03:27:38.909Z,9.40
2023-01-17T03:30:06.844Z,11.20
2023-01-17T03:32:33.682Z,9.40
2023-01-17T03:35:00.443Z,9.30
2023-01-17T03:37:27.510Z,8.00
2023-01-17T03:39:54.569Z,9.50
2023-01-17T03:42:24.076Z,10.20
2023-01-17T03:44:50.757Z,11.10
2023-01-17T03:47:17.555Z,10.50
2023-01-17T03:49:44.287Z,9.70
2023-01-17T03:52:11.068Z,10.00
2023-01-17T03:54:38.178Z,11.20
2023-01-17T03:57:05.131Z,10.70
2023-01-17T03:59:33.493Z,11.00
2023-01-17T04:02:00.656Z,9.30
2023-01-17T04:04:27.430Z,10.20
2023-01-17T04:06:54.395Z,10.30
2023-01-17T04:09:21.209Z,10.80
2023-01-17T04:11:50.319Z,10.70
2023-01-17T04:14:17.450Z,10.70
2023-01-17T04:16:44.291Z,9.20
2023-01-17T04:19:13.916Z,9.80
2023-01-17T04:21:40.916Z,11.50
2023-01-17T04:24:07.944Z,10.90
2023-01-17T04:26:35.559Z,11.90
2023-01-17T04:29:03.239Z,10.90
2023-01-17T04:31:29.997Z,9.20
2023-01-17T04:34:01.139Z,11.10
2023-01-17T04:36:27.945Z,11.90
2023-01-17T04:38:54.559Z,11.10
2023-01-17T04:41:21.661Z,11.70
2023-01-17T04:43:48.864Z,11.70
2023-01-17T04:46:15.540Z,13.50
2023-01-17T04:48:42.225Z,10.30
2023-01-17T04:51:08.973Z,11.10
2023-01-17T04:53:36.241Z,11.70
2023-01-17T04:56:03.491Z,11.70
2023-01-17T04:58:32.821Z,12.90
2023-01-17T05:01:03.888Z,10.90
2023-01-17T05:03:31.488Z,11.00
2023-01-17T05:05:58.375Z,11.80
2023-01-17T05:08:25.274Z,11.50
2023-01-17T05:10:52.165Z,12.50
2023-01-17T05:13:18.904Z,12.90
2023-01-17T05:15:46.026Z,12.90
2023-01-17T05:18:13.852Z,11.80
2023-01-17T05:20:40.676Z,11.70
2023-01-17T05:23:08.019Z,12.50
2023-01-17T05:25:35.315Z,13.10
2023-01-17T05:28:02.631Z,12.80
2023-01-17T05:30:30.475Z,11.80
2023-01-17T05:32:57.692Z,12.50
2023-01-17T05:35:29.626Z,13.50
2023-01-17T05:37:58.431Z,14.10
2023-01-17T05:40:27.601Z,14.20
2023-01-17T05:42:58.151Z,14.20
2023-01-17T05:45:26.219Z,12.00
2023-01-17T05:47:54.182Z,14.10
2023-01-17T05:50:27.683Z,14.60
2023-01-17T05:52:56.478Z,15.10
2023-01-17T05:55:23.621Z,15.10
2023-01-17T05:57:50.850Z,14.60
2023-01-17T21:00:06.036Z,20.10
2023-01-17T21:02:33.061Z,21.30
2023-01-17T21:05:03.207Z,20.90
2023-01-17T21:07:30.068Z,22.20
2023-01-17T21:09:57.415Z,21.90
2023-01-17T21:12:24.079Z,21.60
2023-01-17T21:14:50.810Z,20.10
2023-01-17T21:17:18.759Z,19.30
2023-01-17T21:19:45.678Z,17.40
2023-01-17T21:22:16.207Z,18.60
2023-01-17T21:24:43.051Z,17.40
2023-01-17T21:27:11.786Z,18.90
2023-01-17T21:29:38.482Z,18.40
2023-01-17T21:32:05.882Z,18.80
2023-01-17T21:34:34.145Z,18.60
2023-01-17T21:37:01.775Z,19.00
2023-01-17T21:39:28.709Z,19.90
2023-01-17T21:41:55.418Z,18.80
2023-01-17T21:44:22.352Z,22.10
2023-01-17T21:46:52.469Z,20.50
2023-01-17T21:49:20.608Z,20.00
2023-01-17T21:51:53.373Z,20.00
